Time;durP1;ratioP1;P1;durP2;ratioP2;P2;SDS_P1;SDS_P2;PMS_P1;PMS_P2;Temp;Humidity;BMP_temperature;BMP_pressure;BME280_temperature;BME280_humidity;BME280_pressure;Samples;Min_cycle;Max_cycle;Signal;HPM_P1;HPM_P2
2024/02/01 00:01:29;;;;;;;3.90;3.60;;;0.50;99.90;;;;;;4934692;28;20452;-81
2024/02/01 00:03:56;;;;;;;11.32;7.93;;;0.50;99.90;;;;;;4960605;28;20252;-82
2024/02/01 00:06:22;;;;;;;5.57;4.22;;;0.40;99.90;;;;;;4955536;28;20269;-81
2024/02/01 00:08:49;;;;;;;7.15;5.82;;;0.10;99.90;;;;;;4959886;28;20200;-80
2024/02/01 00:11:16;;;;;;;4.32;3.80;;;0.00;99.90;;;;;;4961178;28;20551;-80
2024/02/01 00:13:43;;;;;;;5.05;4.55;;;0.00;99.90;;;;;;4964912;28;20238;-80
2024/02/01 00:16:11;;;;;;;5.30;4.93;;;0.10;99.90;;;;;;4938214;29;20270;-81
2024/02/01 00:18:39;;;;;;;5.47;5.05;;;0.00;99.90;;;;;;4972457;28;20408;-80
2024/02/01 00:21:06;;;;;;;18.85;7.45;;;-0.10;99.90;;;;;;4959492;28;20211;-82
2024/02/01 00:23:33;;;;;;;3.90;3.28;;;0.00;99.90;;;;;;4956536;28;20428;-79
2024/02/01 00:26:00;;;;;;;11.57;10.18;;;0.10;99.90;;;;;;4959731;28;20231;-79
2024/02/01 00:28:27;;;;;;;7.15;6.60;;;0.10;99.90;;;;;;4955848;28;20208;-82
2024/02/01 00:30:54;;;;;;;6.25;5.57;;;0.10;99.90;;;;;;4951594;28;20203;-79
2024/02/01 00:33:21;;;;;;;15.98;6.80;;;0.00;99.90;;;;;;4952876;29;20243;-80
2024/02/01 00:35:48;;;;;;;6.80;6.10;;;0.00;99.90;;;;;;4955581;29;20215;-80
2024/02/01 00:38:15;;;;;;;4.50;4.20;;;0.10;99.90;;;;;;4954149;29;20233;-78
2024/02/01 00:40:41;;;;;;;5.47;4.63;;;0.10;99.90;;;;;;4980265;28;20210;-80
2024/02/01 00:43:09;;;;;;;4.35;4.00;;;0.00;99.90;;;;;;4980267;28;20207;-78
2024/02/01 00:45:36;;;;;;;6.10;4.78;;;-0.10;99.90;;;;;;4941220;28;20212;-79
2024/02/01 00:48:04;;;;;;;10.77;9.77;;;-0.10;99.90;;;;;;4955836;28;20214;-81
2024/02/01 00:50:31;;;;;;;6.93;3.90;;;-0.30;99.90;;;;;;4966022;28;20311;-80
2024/02/01 00:52:58;;;;;;;4.35;4.15;;;-0.30;99.90;;;;;;4946331;28;20404;-81
2024/02/01 00:55:25;;;;;;;8.55;7.72;;;-0.30;99.90;;;;;;4957905;28;20204;-80
2024/02/01 00:57:52;;;;;;;5.97;5.68;;;-0.40;99.90;;;;;;4965353;28;20258;-80
2024/02/01 01:00:19;;;;;;;2.65;2.47;;;-0.50;99.90;;;;;;4959751;28;20204;-80
2024/02/01 01:02:48;;;;;;;3.50;2.55;;;-0.50;99.90;;;;;;4954279;29;20227;-83
2024/02/01 01:05:15;;;;;;;2.72;2.63;;;-0.40;99.90;;;;;;4947366;29;20199;-81
2024/02/01 01:07:42;;;;;;;5.60;4.30;;;-0.40;99.90;;;;;;4958288;28;20204;-82
2024/02/01 01:10:09;;;;;;;4.05;3.85;;;-0.40;99.90;;;;;;4961613;29;20391;-80
2024/02/01 01:12:36;;;;;;;2.28;2.17;;;-0.30;99.90;;;;;;4965775;28;20203;-81
2024/02/01 01:15:03;;;;;;;4.75;4.55;;;-0.40;99.90;;;;;;4961047;28;20279;-80
2024/02/01 01:17:30;;;;;;;6.93;6.40;;;-0.30;99.90;;;;;;4929091;29;20208;-79
2024/02/01 01:20:02;;;;;;;15.23;5.63;;;-0.30;99.90;;;;;;4948843;28;20227;-80
2024/02/01 01:22:30;;;;;;;5.70;5.22;;;-0.40;99.90;;;;;;4934545;29;20228;-79
2024/02/01 01:24:57;;;;;;;4.65;4.15;;;-0.40;99.90;;;;;;4967024;28;20229;-80
2024/02/01 01:27:24;;;;;;;4.28;4.07;;;-0.30;99.90;;;;;;4944920;29;20235;-79
2024/02/01 01:29:52;;;;;;;2.63;2.53;;;-0.30;99.90;;;;;;4948216;28;20211;-78
2024/02/01 01:32:19;;;;;;;5.45;5.05;;;-0.30;99.90;;;;;;4942687;28;20266;-79
2024/02/01 01:34:46;;;;;;;2.47;2.38;;;-0.40;99.90;;;;;;4961223;28;20218;-79
2024/02/01 01:37:14;;;;;;;3.03;2.92;;;-0.40;99.90;;;;;;4965402;28;20530;-80
2024/02/01 01:39:41;;;;;;;2.90;2.75;;;-0.40;99.90;;;;;;4960595;28;20582;-78
2024/02/01 01:42:08;;;;;;;4.15;3.88;;;-0.30;99.90;;;;;;4958889;29;20201;-78
2024/02/01 01:44:35;;;;;;;3.53;3.35;;;-0.30;99.90;;;;;;4964233;28;20207;-78
2024/02/01 01:47:02;;;;;;;4.60;4.18;;;-0.20;99.90;;;;;;4956539;28;20385;-78
2024/02/01 01:49:30;;;;;;;9.98;3.17;;;-0.20;99.90;;;;;;4963438;28;20254;-79
2024/02/01 01:51:57;;;;;;;5.43;4.97;;;-0.10;99.90;;;;;;4957491;28;20492;-80
2024/02/01 01:54:25;;;;;;;13.88;4.50;;;0.00;99.90;;;;;;4939710;29;20242;-81
2024/02/01 01:56:53;;;;;;;3.28;3.17;;;0.00;99.90;;;;;;4955682;28;20464;-78
2024/02/01 01:59:23;;;;;;;3.78;3.47;;;0.00;99.90;;;;;;4944540;29;20228;-78
2024/02/01 02:01:52;;;;;;;3.10;2.92;;;0.00;99.90;;;;;;4962067;28;20512;-78
2024/02/01 02:04:20;;;;;;;6.38;5.97;;;0.00;99.90;;;;;;4931599;29;20208;-78
2024/02/01 02:06:48;;;;;;;4.40;4.05;;;0.00;99.90;;;;;;4956936;28;20276;-79
2024/02/01 02:09:15;;;;;;;4.10;3.72;;;0.00;99.90;;;;;;4945453;29;20204;-77
2024/02/01 02:11:45;;;;;;;20.73;4.20;;;0.10;99.90;;;;;;4954667;28;20235;-79
2024/02/01 02:14:15;;;;;;;2.60;2.50;;;0.20;99.90;;;;;;4959717;28;20392;-80
2024/02/01 02:16:43;;;;;;;5.75;5.35;;;0.10;99.90;;;;;;4955526;28;20204;-80
2024/02/01 02:19:10;;;;;;;7.47;3.97;;;0.10;99.90;;;;;;4952990;28;20223;-80
2024/02/01 02:21:48;;;;;;;4.35;4.15;;;0.10;99.90;;;;;;4954594;28;20204;-79
2024/02/01 02:24:19;;;;;;;4.00;3.67;;;0.20;99.90;;;;;;4966708;28;20202;-81
2024/02/01 02:26:48;;;;;;;4.30;2.95;;;0.20;99.90;;;;;;4988393;28;20224;-82
2024/02/01 02:29:16;;;;;;;2.30;2.20;;;0.20;99.90;;;;;;4965343;28;20215;-78
2024/02/01 02:31:44;;;;;;;3.55;3.35;;;0.30;99.90;;;;;;4962436;28;20203;-79
2024/02/01 02:34:11;;;;;;;4.25;3.90;;;0.20;99.90;;;;;;4955941;29;20211;-78
2024/02/01 02:36:39;;;;;;;4.03;3.28;;;0.40;99.90;;;;;;4956646;28;20512;-78
2024/02/01 02:39:09;;;;;;;1.88;1.77;;;0.40;99.90;;;;;;4958598;28;20559;-79
2024/02/01 02:41:36;;;;;;;2.25;2.15;;;0.50;99.90;;;;;;4952099;28;20268;-78
2024/02/01 02:44:06;;;;;;;3.92;3.53;;;0.50;99.90;;;;;;4953144;28;20228;-79
2024/02/01 02:46:33;;;;;;;15.98;4.88;;;0.50;99.90;;;;;;4958342;28;20219;-81
2024/02/01 02:49:00;;;;;;;2.33;2.22;;;0.40;99.90;;;;;;4961966;28;20506;-79
2024/02/01 02:51:28;;;;;;;2.30;2.20;;;0.40;99.90;;;;;;4953412;28;20210;-79
2024/02/01 02:53:55;;;;;;;3.03;2.92;;;0.60;99.90;;;;;;4947186;28;20215;-79
2024/02/01 02:56:24;;;;;;;13.70;5.78;;;0.60;99.90;;;;;;4960127;28;20215;-81
2024/02/01 02:58:51;;;;;;;2.72;2.60;;;0.70;99.90;;;;;;4949334;28;20293;-79
2024/02/01 03:01:20;;;;;;;1.83;1.73;;;0.60;99.90;;;;;;4961835;28;20199;-81
2024/02/01 03:03:47;;;;;;;5.70;5.28;;;0.70;99.90;;;;;;4941065;28;20287;-81
2024/02/01 03:06:14;;;;;;;1.65;1.38;;;0.60;99.90;;;;;;4956223;28;20247;-80
2024/02/01 03:08:42;;;;;;;4.20;3.90;;;0.70;99.90;;;;;;4936995;29;20412;-79
2024/02/01 03:11:12;;;;;;;3.83;3.40;;;0.80;99.90;;;;;;4975377;28;20204;-80
2024/02/01 03:13:41;;;;;;;1.50;1.42;;;0.90;99.90;;;;;;4955042;28;20204;-78
2024/02/01 03:16:18;;;;;;;3.70;3.38;;;0.80;99.90;;;;;;4961069;28;20212;-78
2024/02/01 03:18:46;;;;;;;1.77;1.65;;;0.80;99.90;;;;;;4951254;28;20223;-80
2024/02/01 03:21:14;;;;;;;3.30;3.10;;;0.90;99.90;;;;;;4947157;28;20225;-80
2024/02/01 03:23:46;;;;;;;2.53;2.42;;;0.90;99.90;;;;;;4948012;28;20232;-78
2024/02/01 03:26:14;;;;;;;5.28;4.75;;;1.00;99.90;;;;;;4951960;28;20228;-78
2024/02/01 03:28:42;;;;;;;2.58;2.40;;;1.30;99.90;;;;;;4937616;29;20286;-78
2024/02/01 03:31:11;;;;;;;2.58;2.38;;;1.40;99.90;;;;;;4965448;28;20226;-79
2024/02/01 03:33:40;;;;;;;5.18;2.97;;;1.50;99.90;;;;;;4957621;28;20209;-80
2024/02/01 03:36:08;;;;;;;6.18;3.90;;;1.70;99.90;;;;;;4949448;28;20231;-81
2024/02/01 03:38:37;;;;;;;3.05;2.85;;;1.80;99.90;;;;;;4946138;28;20232;-80
2024/02/01 03:41:04;;;;;;;4.63;1.85;;;1.80;99.90;;;;;;4933034;29;20275;-79
2024/02/01 03:43:32;;;;;;;1.70;1.60;;;1.80;99.90;;;;;;4949144;28;20204;-80
2024/02/01 03:45:58;;;;;;;3.70;3.53;;;1.90;99.90;;;;;;4960050;28;20204;-78
2024/02/01 03:48:25;;;;;;;5.00;3.63;;;2.10;99.90;;;;;;4950497;28;20211;-81
2024/02/01 03:50:52;;;;;;;2.17;2.08;;;2.20;99.90;;;;;;4946518;28;20204;-79
2024/02/01 03:53:20;;;;;;;1.80;1.73;;;2.20;99.90;;;;;;4949938;28;20200;-79
2024/02/01 03:55:48;;;;;;;4.60;4.25;;;2.30;99.90;;;;;;4953228;28;20204;-78
2024/02/01 03:58:17;;;;;;;1.52;1.42;;;2.30;99.90;;;;;;4961827;28;20268;-80
2024/02/01 04:00:50;;;;;;;2.78;1.77;;;2.30;99.90;;;;;;4948750;28;20236;-78
2024/02/01 04:03:17;;;;;;;2.17;2.08;;;2.50;99.90;;;;;;4954121;28;20200;-79
2024/02/01 04:05:45;;;;;;;1.17;1.15;;;2.50;99.90;;;;;;4953333;28;20546;-80
2024/02/01 04:08:16;;;;;;;2.67;1.77;;;2.60;99.90;;;;;;4960895;28;20204;-79
2024/02/01 04:10:45;;;;;;;4.18;3.90;;;2.70;99.90;;;;;;4950124;28;20267;-80
2024/02/01 04:13:11;;;;;;;1.10;1.10;;;2.80;99.90;;;;;;4954617;28;20492;-79
2024/02/01 04:15:39;;;;;;;1.83;1.63;;;2.80;99.90;;;;;;4953877;28;20209;-80
2024/02/01 04:18:07;;;;;;;2.80;2.70;;;2.90;99.90;;;;;;4954826;28;20204;-80
2024/02/01 04:20:35;;;;;;;2.65;2.55;;;2.90;99.90;;;;;;4951910;28;20553;-78
2024/02/01 04:23:02;;;;;;;1.27;1.27;;;3.00;99.90;;;;;;4956036;28;20200;-78
2024/02/01 04:25:32;;;;;;;4.65;4.15;;;3.00;99.90;;;;;;4952489;28;20227;-79
2024/02/01 04:27:59;;;;;;;3.67;3.38;;;2.90;99.90;;;;;;4956895;28;20216;-80
2024/02/01 04:30:28;;;;;;;3.78;3.47;;;3.00;99.90;;;;;;4954863;28;20212;-79
2024/02/01 04:32:55;;;;;;;3.28;2.72;;;3.10;99.90;;;;;;4957274;28;20283;-79
2024/02/01 04:35:22;;;;;;;2.63;2.22;;;3.20;99.90;;;;;;4953264;28;20560;-79
2024/02/01 04:37:52;;;;;;;1.08;1.05;;;3.20;99.90;;;;;;4954596;28;20215;-80
2024/02/01 04:40:23;;;;;;;2.78;2.58;;;3.30;99.90;;;;;;4946892;29;20255;-79
2024/02/01 04:42:52;;;;;;;0.50;0.50;;;3.30;99.90;;;;;;4963176;28;20388;-80
2024/02/01 04:45:19;;;;;;;1.15;1.15;;;3.30;99.90;;;;;;4970308;28;20204;-79
2024/02/01 04:47:46;;;;;;;0.75;0.75;;;3.30;99.90;;;;;;4960732;28;20620;-81
2024/02/01 04:50:14;;;;;;;5.95;2.50;;;3.30;99.90;;;;;;4956475;28;21124;-80
2024/02/01 04:52:41;;;;;;;4.63;4.22;;;3.30;99.90;;;;;;4952240;29;20222;-78
2024/02/01 04:55:09;;;;;;;7.32;3.10;;;3.20;99.90;;;;;;4935423;29;20321;-79
2024/02/01 04:57:40;;;;;;;1.25;1.15;;;3.10;99.90;;;;;;4950606;28;20657;-78
2024/02/01 05:00:16;;;;;;;2.30;2.15;;;3.20;99.90;;;;;;4947405;28;20231;-78
2024/02/01 05:02:47;;;;;;;1.50;1.42;;;3.30;99.90;;;;;;4952921;28;20200;-78
2024/02/01 05:05:16;;;;;;;1.65;1.55;;;3.50;99.90;;;;;;4934365;29;20212;-79
2024/02/01 05:07:43;;;;;;;2.67;2.58;;;3.40;99.90;;;;;;4966456;28;20263;-81
2024/02/01 05:10:15;;;;;;;0.90;0.90;;;3.50;99.90;;;;;;4942187;28;20222;-80
2024/02/01 05:12:42;;;;;;;0.85;0.85;;;3.50;99.90;;;;;;4973367;28;20231;-79
2024/02/01 05:15:11;;;;;;;0.95;0.95;;;3.50;99.90;;;;;;4963134;28;20267;-82
2024/02/01 05:17:39;;;;;;;0.73;0.73;;;3.50;99.90;;;;;;4967773;28;20268;-80
2024/02/01 05:20:11;;;;;;;1.23;1.23;;;3.50;99.90;;;;;;4960888;28;20235;-79
2024/02/01 05:22:40;;;;;;;1.52;1.50;;;3.40;99.90;;;;;;4955624;28;20234;-80
2024/02/01 05:25:19;;;;;;;1.13;1.13;;;3.50;99.90;;;;;;4956193;28;20250;-82
2024/02/01 05:27:52;;;;;;;3.63;2.55;;;3.50;99.90;;;;;;4956603;28;20214;-79
2024/02/01 05:30:20;;;;;;;1.65;1.55;;;3.60;99.90;;;;;;4957390;28;20583;-78
2024/02/01 05:32:52;;;;;;;0.50;0.50;;;3.90;99.90;;;;;;4947096;29;20725;-79
2024/02/01 05:35:26;;;;;;;1.25;1.25;;;3.80;99.90;;;;;;4948535;28;20203;-81
2024/02/01 05:37:54;;;;;;;1.73;1.63;;;3.90;99.90;;;;;;4951873;28;20563;-79
2024/02/01 05:40:22;;;;;;;0.60;0.60;;;3.90;99.90;;;;;;4959414;29;20451;-81
2024/02/01 05:42:49;;;;;;;1.05;1.05;;;4.00;99.90;;;;;;4929467;29;20277;-80
2024/02/01 05:45:18;;;;;;;1.15;1.15;;;4.00;99.90;;;;;;4955165;28;20199;-80
2024/02/01 05:47:52;;;;;;;1.63;1.52;;;4.00;99.90;;;;;;4953874;28;20240;-82
2024/02/01 05:50:23;;;;;;;1.75;1.35;;;3.90;99.90;;;;;;4960648;28;20506;-81
2024/02/01 05:52:50;;;;;;;0.75;0.75;;;3.90;99.90;;;;;;4956298;28;20213;-81
2024/02/01 05:55:17;;;;;;;2.67;1.83;;;3.90;99.90;;;;;;4965962;28;20203;-80
2024/02/01 05:57:44;;;;;;;1.42;1.35;;;3.90;99.90;;;;;;4954067;29;20271;-80
2024/02/01 06:00:19;;;;;;;1.88;1.80;;;4.00;99.90;;;;;;4966828;28;20254;-79
2024/02/01 06:02:51;;;;;;;2.45;2.35;;;3.80;99.90;;;;;;4957651;29;20211;-81
2024/02/01 06:05:20;;;;;;;0.73;0.73;;;4.00;99.90;;;;;;4963703;28;20252;-78
2024/02/01 06:07:48;;;;;;;0.50;0.50;;;3.90;99.90;;;;;;4935015;29;20384;-79
2024/02/01 06:10:15;;;;;;;2.38;2.17;;;3.90;99.90;;;;;;4963336;28;20278;-81
2024/02/01 06:12:42;;;;;;;3.78;3.47;;;3.90;99.90;;;;;;4955298;29;20249;-79
2024/02/01 06:15:11;;;;;;;1.42;1.42;;;4.00;99.90;;;;;;4955962;28;20250;-79
2024/02/01 06:17:39;;;;;;;1.30;1.30;;;3.90;99.90;;;;;;4943487;29;20224;-79
2024/02/01 06:20:08;;;;;;;1.60;1.52;;;3.90;99.90;;;;;;4956712;28;20254;-78
2024/02/01 06:22:36;;;;;;;2.22;2.13;;;3.90;99.90;;;;;;4962508;28;20266;-80
2024/02/01 06:25:11;;;;;;;1.00;1.00;;;3.80;99.90;;;;;;4960426;28;20499;-79
2024/02/01 06:27:39;;;;;;;1.13;1.13;;;3.90;99.90;;;;;;4953691;29;20240;-81
2024/02/01 06:30:10;;;;;;;0.50;0.50;;;3.80;99.90;;;;;;4962374;28;20211;-79
2024/02/01 06:32:39;;;;;;;0.85;0.85;;;3.80;99.90;;;;;;4949129;29;20199;-78
2024/02/01 06:35:16;;;;;;;1.70;1.60;;;3.60;99.90;;;;;;4958029;28;20200;-80
2024/02/01 06:37:51;;;;;;;0.60;0.60;;;3.70;99.90;;;;;;4966866;28;20272;-77
2024/02/01 06:40:37;;;;;;;1.85;1.15;;;3.70;99.90;;;;;;4958689;28;20226;-78
2024/02/01 06:43:16;;;;;;;1.48;1.38;;;3.80;99.90;;;;;;4956704;28;20384;-79
2024/02/01 06:45:45;;;;;;;0.80;0.80;;;3.80;99.90;;;;;;4952744;28;20195;-79
2024/02/01 06:48:12;;;;;;;1.85;1.75;;;3.90;99.90;;;;;;4953639;28;20230;-79
2024/02/01 06:50:57;;;;;;;2.15;2.05;;;3.70;99.90;;;;;;4949797;28;20207;-77
2024/02/01 06:53:33;;;;;;;4.43;2.05;;;3.80;99.90;;;;;;4957050;28;20219;-79
2024/02/01 06:56:13;;;;;;;1.45;1.38;;;3.90;99.90;;;;;;4958870;28;20230;-80
2024/02/01 06:59:06;;;;;;;0.98;0.98;;;3.80;99.90;;;;;;4941367;28;20196;-79
2024/02/01 07:01:48;;;;;;;0.60;0.60;;;4.00;99.90;;;;;;4952631;28;20200;-78
2024/02/01 07:04:16;;;;;;;1.52;1.42;;;3.90;99.90;;;;;;4962360;28;20266;-79
2024/02/01 07:09:37;;;;;;;0.50;0.50;;;4.00;99.90;;;;;;4956117;28;20247;-76
2024/02/01 07:12:39;;;;;;;1.92;1.85;;;4.00;99.90;;;;;;4949318;28;20208;-77
2024/02/01 07:15:29;;;;;;;0.82;0.82;;;4.00;99.90;;;;;;4962691;28;20203;-81
2024/02/01 07:17:59;;;;;;;1.13;1.08;;;4.00;99.90;;;;;;4964877;28;20219;-77
2024/02/01 07:20:35;;;;;;;1.45;1.35;;;4.00;99.90;;;;;;4956880;28;20283;-77
2024/02/01 07:23:33;;;;;;;0.50;0.50;;;4.10;99.90;;;;;;4960789;28;20496;-78
2024/02/01 07:26:02;;;;;;;0.50;0.50;;;4.10;99.90;;;;;;4965407;28;20218;-78
2024/02/01 07:59:07;;;;;;;1.25;1.15;;;4.40;99.90;;;;;;4953879;28;20203;-78
2024/02/01 08:01:48;;;;;;;1.98;1.80;;;4.30;99.90;;;;;;4960163;28;20233;-78
2024/02/01 08:04:17;;;;;;;0.95;0.95;;;4.30;99.90;;;;;;4937487;28;20279;-79
2024/02/01 08:09:31;;;;;;;2.55;2.45;;;4.40;99.90;;;;;;4968884;28;20394;-81
2024/02/01 08:11:58;;;;;;;1.02;1.02;;;4.40;99.90;;;;;;4959466;28;20200;-78
2024/02/01 08:14:25;;;;;;;1.15;1.15;;;4.40;99.90;;;;;;4954810;28;20216;-79
2024/02/01 08:16:52;;;;;;;3.63;3.35;;;4.40;99.90;;;;;;4955506;28;20259;-78
2024/02/01 08:19:20;;;;;;;1.30;1.30;;;4.50;99.90;;;;;;4953041;28;20388;-78
2024/02/01 08:22:06;;;;;;;2.30;2.20;;;4.50;99.90;;;;;;4953822;28;20224;-78
2024/02/01 08:24:34;;;;;;;0.75;0.75;;;4.60;99.90;;;;;;4934269;28;20209;-78
2024/02/01 08:27:04;;;;;;;1.13;1.13;;;4.60;99.90;;;;;;4947751;28;20239;-77
2024/02/01 08:29:36;;;;;;;1.73;1.63;;;4.60;99.90;;;;;;4940503;28;20429;-80
2024/02/01 08:32:04;;;;;;;0.63;0.63;;;4.60;99.90;;;;;;4958947;28;20212;-81
2024/02/01 08:34:31;;;;;;;0.77;0.77;;;4.50;99.90;;;;;;4937913;28;20208;-78
2024/02/01 08:36:58;;;;;;;1.45;1.35;;;4.60;99.90;;;;;;4952584;28;20206;-79
2024/02/01 08:39:26;;;;;;;0.40;0.40;;;4.60;99.90;;;;;;4958332;28;20204;-78
2024/02/01 08:41:53;;;;;;;0.98;0.98;;;4.60;99.90;;;;;;4940875;29;20236;-79
2024/02/01 08:44:20;;;;;;;0.73;0.73;;;4.70;99.90;;;;;;4946598;28;20240;-77
2024/02/01 08:46:50;;;;;;;1.13;1.13;;;4.70;99.90;;;;;;4956737;28;20206;-79
2024/02/01 08:49:17;;;;;;;1.88;1.77;;;4.80;99.90;;;;;;4956159;28;20219;-79
2024/02/01 08:51:45;;;;;;;1.77;1.67;;;4.80;99.90;;;;;;4939536;29;20203;-78
2024/02/01 08:54:12;;;;;;;0.75;0.75;;;4.90;99.90;;;;;;4955366;28;20246;-78
2024/02/01 08:56:40;;;;;;;2.42;2.22;;;4.90;99.90;;;;;;4972009;28;20274;-78
2024/02/01 08:59:08;;;;;;;1.35;1.25;;;4.90;99.90;;;;;;4957460;28;20200;-79
2024/02/01 09:01:34;;;;;;;0.60;0.60;;;4.90;99.90;;;;;;4940359;28;20227;-79
2024/02/01 09:04:13;;;;;;;0.52;0.52;;;5.00;99.90;;;;;;4953837;28;20445;-79
2024/02/01 09:06:53;;;;;;;0.70;0.70;;;5.00;99.90;;;;;;4933630;28;20548;-78
2024/02/01 09:09:29;;;;;;;0.50;0.50;;;5.10;99.90;;;;;;4955138;28;20276;-81
2024/02/01 09:11:56;;;;;;;2.83;2.72;;;5.10;99.90;;;;;;4963254;28;20197;-80
2024/02/01 09:14:23;;;;;;;0.70;0.70;;;5.30;99.90;;;;;;4935287;28;20534;-78
2024/02/01 09:16:53;;;;;;;0.95;0.95;;;5.30;99.90;;;;;;4961121;28;20275;-79
2024/02/01 09:19:20;;;;;;;1.17;1.17;;;5.30;99.90;;;;;;4956590;28;20482;-80
2024/02/01 09:21:47;;;;;;;0.40;0.40;;;5.30;99.90;;;;;;4961337;28;20226;-81
2024/02/01 09:24:14;;;;;;;1.60;1.50;;;5.30;99.90;;;;;;4953135;28;20206;-81
2024/02/01 09:26:41;;;;;;;0.88;0.88;;;5.40;99.90;;;;;;4952624;29;20223;-81
2024/02/01 09:29:11;;;;;;;1.30;1.25;;;5.40;99.90;;;;;;4968014;28;20226;-80
2024/02/01 09:31:39;;;;;;;1.20;1.20;;;5.40;99.90;;;;;;4937962;28;20196;-79
2024/02/01 09:34:08;;;;;;;0.70;0.70;;;5.40;99.90;;;;;;4944415;29;20397;-82
2024/02/01 09:36:36;;;;;;;0.50;0.50;;;5.40;99.90;;;;;;4948374;28;20207;-80
2024/02/01 09:39:05;;;;;;;0.60;0.60;;;5.40;99.90;;;;;;4939396;29;20213;-80
2024/02/01 09:41:34;;;;;;;2.13;2.03;;;5.50;99.90;;;;;;4956161;28;20231;-79
2024/02/01 09:44:06;;;;;;;0.50;0.50;;;5.50;99.90;;;;;;4935800;29;20258;-80
2024/02/01 09:46:34;;;;;;;0.80;0.80;;;5.60;99.90;;;;;;4946118;29;20214;-80
2024/02/01 09:49:02;;;;;;;0.50;0.50;;;5.60;99.90;;;;;;4933847;29;20207;-78
2024/02/01 09:51:38;;;;;;;0.70;0.70;;;5.60;99.90;;;;;;4964486;28;20240;-80
2024/02/01 09:54:11;;;;;;;1.05;1.05;;;5.70;99.90;;;;;;4965550;28;20916;-79
2024/02/01 09:56:41;;;;;;;0.40;0.40;;;5.70;99.90;;;;;;4963933;28;20228;-83
2024/02/01 09:59:12;;;;;;;0.50;0.50;;;5.70;99.90;;;;;;4968120;28;20204;-80
2024/02/01 10:01:39;;;;;;;0.50;0.50;;;5.80;99.90;;;;;;4967374;28;20286;-82
2024/02/01 10:04:12;;;;;;;0.60;0.60;;;5.80;99.90;;;;;;4939541;29;20209;-83
2024/02/01 10:06:40;;;;;;;0.40;0.40;;;5.80;99.90;;;;;;4944327;29;20205;-77
2024/02/01 10:09:21;;;;;;;0.60;0.60;;;5.90;99.90;;;;;;4944502;29;20307;-84
2024/02/01 10:11:50;;;;;;;0.40;0.40;;;5.90;99.90;;;;;;4968337;28;20275;-78
2024/02/01 10:14:17;;;;;;;1.63;1.55;;;5.90;99.90;;;;;;4958906;28;20220;-84
2024/02/01 10:16:45;;;;;;;0.50;0.50;;;6.00;99.90;;;;;;4966279;29;20220;-82
2024/02/01 10:19:14;;;;;;;0.45;0.45;;;6.00;99.90;;;;;;4939298;29;20202;-81
2024/02/01 10:21:44;;;;;;;0.57;0.57;;;6.20;99.90;;;;;;4966551;28;20470;-82
2024/02/01 10:24:25;;;;;;;0.73;0.73;;;6.30;99.90;;;;;;4958912;28;20203;-81
2024/02/01 10:27:03;;;;;;;2.28;2.17;;;6.30;99.90;;;;;;4944186;29;20200;-78
2024/02/01 10:29:30;;;;;;;0.40;0.40;;;6.40;99.90;;;;;;4947988;28;20227;-81
2024/02/01 10:32:04;;;;;;;0.57;0.57;;;6.40;99.90;;;;;;4949244;28;20207;-82
2024/02/01 10:34:32;;;;;;;0.40;0.40;;;6.50;99.90;;;;;;4959259;28;20207;-79
2024/02/01 10:37:05;;;;;;;0.40;0.40;;;6.50;99.90;;;;;;4950381;29;20232;-80
2024/02/01 10:39:37;;;;;;;0.50;0.50;;;6.50;99.90;;;;;;4965204;28;20202;-80
2024/02/01 10:42:08;;;;;;;0.40;0.40;;;6.50;99.90;;;;;;4952385;28;20233;-80
2024/02/01 10:44:41;;;;;;;0.40;0.40;;;6.20;99.90;;;;;;4932512;28;20246;-78
2024/02/01 10:47:13;;;;;;;0.50;0.50;;;6.40;99.90;;;;;;4948032;28;20200;-79
2024/02/01 10:49:52;;;;;;;1.35;1.35;;;6.30;99.90;;;;;;4968592;28;20529;-81
2024/02/01 10:52:21;;;;;;;0.70;0.70;;;6.20;99.90;;;;;;4960725;28;20492;-83
2024/02/01 10:54:51;;;;;;;1.40;1.30;;;6.20;99.90;;;;;;4948915;28;20404;-82
2024/02/01 10:57:19;;;;;;;1.15;1.13;;;6.10;99.90;;;;;;4960823;28;20207;-81
2024/02/01 10:59:49;;;;;;;0.40;0.40;;;6.00;99.90;;;;;;4951906;28;20267;-79
2024/02/01 11:02:20;;;;;;;0.50;0.50;;;6.00;99.90;;;;;;4957006;28;20758;-81
2024/02/01 11:04:48;;;;;;;0.73;0.73;;;6.10;99.90;;;;;;4961037;28;20225;-78
2024/02/01 11:07:24;;;;;;;0.50;0.50;;;6.00;99.90;;;;;;4950187;29;20233;-81
2024/02/01 11:09:52;;;;;;;0.40;0.40;;;6.00;99.90;;;;;;4957574;28;20273;-80
2024/02/01 11:12:24;;;;;;;0.40;0.40;;;5.90;99.90;;;;;;4954235;28;20430;-79
2024/02/01 11:14:52;;;;;;;0.50;0.50;;;5.90;99.90;;;;;;4964972;28;20214;-81
2024/02/01 11:17:23;;;;;;;0.70;0.70;;;5.90;99.90;;;;;;4956263;29;20435;-83
2024/02/01 11:19:52;;;;;;;0.40;0.40;;;5.90;99.90;;;;;;4953820;28;20240;-82
2024/02/01 11:22:20;;;;;;;1.60;1.60;;;5.90;99.90;;;;;;4943664;29;20226;-78
2024/02/01 11:24:47;;;;;;;0.60;0.60;;;5.90;99.90;;;;;;4954822;28;20490;-82
2024/02/01 11:27:19;;;;;;;0.70;0.70;;;6.00;99.90;;;;;;4942457;29;20394;-79
2024/02/01 11:29:50;;;;;;;0.75;0.75;;;6.10;99.90;;;;;;4964007;28;20255;-79
2024/02/01 11:32:23;;;;;;;0.40;0.40;;;6.00;99.90;;;;;;4953963;28;20342;-80
2024/02/01 11:34:52;;;;;;;6.85;1.80;;;6.00;99.90;;;;;;4949117;28;20208;-78
2024/02/01 11:37:22;;;;;;;0.90;0.85;;;6.00;99.90;;;;;;4952996;28;20209;-80
2024/02/01 11:39:53;;;;;;;0.60;0.60;;;6.20;99.90;;;;;;4957494;28;20203;-82
2024/02/01 11:42:22;;;;;;;0.40;0.40;;;6.30;99.90;;;;;;4955220;28;20253;-77
2024/02/01 11:44:59;;;;;;;1.35;1.35;;;6.40;99.90;;;;;;4956920;28;20196;-80
2024/02/01 11:47:31;;;;;;;0.40;0.40;;;6.50;99.90;;;;;;4959432;28;20543;-81
2024/02/01 11:49:59;;;;;;;0.40;0.40;;;6.80;99.90;;;;;;4958216;28;20271;-82
2024/02/01 11:53:00;;;;;;;1.25;1.25;;;6.70;99.90;;;;;;4963072;28;20207;-81
2024/02/01 11:55:29;;;;;;;0.55;0.55;;;6.80;99.90;;;;;;4969523;28;20205;-80
2024/02/01 11:57:59;;;;;;;0.50;0.50;;;6.80;99.90;;;;;;4963502;28;20386;-80
2024/02/01 12:00:27;;;;;;;0.40;0.40;;;7.00;99.90;;;;;;4965267;28;20210;-79
2024/02/01 12:03:14;;;;;;;0.50;0.50;;;7.10;99.90;;;;;;4956385;28;20211;-81
2024/02/01 12:05:45;;;;;;;1.25;1.25;;;7.10;99.90;;;;;;4969927;28;20206;-82
2024/02/01 12:08:13;;;;;;;0.50;0.50;;;7.30;99.90;;;;;;4964055;28;20226;-83
2024/02/01 12:10:45;;;;;;;1.08;1.08;;;7.30;99.90;;;;;;4938540;28;20508;-82
2024/02/01 12:13:16;;;;;;;0.50;0.50;;;7.40;99.90;;;;;;4964157;28;20199;-81
2024/02/01 12:15:44;;;;;;;1.50;1.40;;;7.30;99.90;;;;;;4949302;28;20257;-80
2024/02/01 12:18:12;;;;;;;2.67;2.58;;;7.40;99.90;;;;;;4958793;29;20199;-80
2024/02/01 12:20:43;;;;;;;0.40;0.40;;;7.30;99.90;;;;;;4953219;28;20209;-78
2024/02/01 12:23:12;;;;;;;0.50;0.50;;;7.40;99.90;;;;;;4942462;29;20260;-79
2024/02/01 12:25:45;;;;;;;0.50;0.50;;;7.50;99.90;;;;;;4958828;28;20238;-80
2024/02/01 12:28:12;;;;;;;0.50;0.50;;;7.30;99.90;;;;;;4935077;29;20223;-81
2024/02/01 12:30:44;;;;;;;0.47;0.47;;;7.20;99.90;;;;;;4954313;28;20448;-80
2024/02/01 12:33:12;;;;;;;0.50;0.50;;;7.20;99.90;;;;;;4964403;28;20207;-79
2024/02/01 12:35:43;;;;;;;0.50;0.50;;;7.30;99.90;;;;;;4960297;28;20245;-83
2024/02/01 12:38:14;;;;;;;0.77;0.77;;;7.60;99.90;;;;;;4945864;29;20239;-82
2024/02/01 12:40:44;;;;;;;0.50;0.50;;;7.70;99.90;;;;;;4952334;28;20211;-80
2024/02/01 12:43:12;;;;;;;0.60;0.60;;;7.60;99.90;;;;;;4958761;28;20199;-82
2024/02/01 12:45:46;;;;;;;0.60;0.60;;;7.50;99.90;;;;;;4952319;28;20196;-83
2024/02/01 12:48:14;;;;;;;0.60;0.60;;;7.60;99.90;;;;;;4965642;28;20202;-82
2024/02/01 12:50:42;;;;;;;0.70;0.70;;;7.50;99.90;;;;;;4960642;28;20200;-83
2024/02/01 12:53:09;;;;;;;0.50;0.50;;;7.50;99.90;;;;;;4964866;28;20210;-80
2024/02/01 12:55:36;;;;;;;0.50;0.50;;;7.20;99.90;;;;;;4977051;28;20199;-82
2024/02/01 12:58:03;;;;;;;0.50;0.50;;;7.00;99.90;;;;;;4959382;28;20226;-83
2024/02/01 13:00:30;;;;;;;0.52;0.52;;;7.00;99.90;;;;;;4968981;28;20195;-83
2024/02/01 13:02:59;;;;;;;0.50;0.50;;;7.00;99.90;;;;;;4959750;28;20246;-84
2024/02/01 13:05:27;;;;;;;0.60;0.60;;;7.00;99.90;;;;;;4972194;28;20274;-81
2024/02/01 13:07:54;;;;;;;0.50;0.50;;;7.10;99.90;;;;;;4955031;28;20206;-84
2024/02/01 13:10:22;;;;;;;0.50;0.50;;;7.10;99.90;;;;;;4946392;28;20219;-79
2024/02/01 13:12:55;;;;;;;0.50;0.50;;;7.20;99.90;;;;;;4962608;28;20214;-83
2024/02/01 13:15:24;;;;;;;0.70;0.70;;;7.20;99.90;;;;;;4960232;28;20284;-81
2024/02/01 13:17:52;;;;;;;0.50;0.50;;;7.20;99.90;;;;;;4956552;28;20205;-80
2024/02/01 13:20:21;;;;;;;0.50;0.50;;;7.30;99.90;;;;;;4945351;29;20259;-82
2024/02/01 13:22:50;;;;;;;0.80;0.80;;;7.30;99.90;;;;;;4963216;28;20235;-83
2024/02/01 13:25:20;;;;;;;0.57;0.57;;;7.30;99.90;;;;;;4968148;28;20255;-81
2024/02/01 13:27:49;;;;;;;0.50;0.50;;;7.40;99.90;;;;;;4949346;28;20256;-82
2024/02/01 13:30:17;;;;;;;0.50;0.50;;;7.50;99.90;;;;;;4960039;28;20211;-78
2024/02/01 13:32:46;;;;;;;0.50;0.50;;;7.50;99.90;;;;;;4937818;28;20223;-82
2024/02/01 13:35:13;;;;;;;0.50;0.50;;;7.70;99.90;;;;;;4961068;29;20198;-83
2024/02/01 13:37:40;;;;;;;0.50;0.50;;;7.80;99.90;;;;;;4958976;28;20207;-81
2024/02/01 13:40:14;;;;;;;0.50;0.50;;;7.90;99.90;;;;;;4949120;29;20267;-80
2024/02/01 13:42:43;;;;;;;3.03;2.88;;;8.00;99.90;;;;;;4967629;28;20222;-87
2024/02/01 13:45:10;;;;;;;0.50;0.50;;;8.00;99.90;;;;;;4970723;29;20210;-82